Time;durP1;ratioP1;P1;durP2;ratioP2;P2;SDS_P1;SDS_P2;PMS_P1;PMS_P2;Temp;Humidity;BMP_temperature;BMP_pressure;BME280_temperature;BME280_humidity;BME280_pressure;Samples;Min_cycle;Max_cycle;Signal;HPM_P1;HPM_P2
2022/03/02 05:01:53;;;;;;;20.30;13.45;;;1.90;99.90;;;;;;5252575;23;20894;-68
2022/03/02 05:04:20;;;;;;;18.23;12.25;;;1.90;99.90;;;;;;4927850;29;20242;-68
2022/03/02 05:06:46;;;;;;;16.48;11.50;;;1.90;99.90;;;;;;4918513;29;20217;-68
2022/03/02 05:09:13;;;;;;;20.73;13.05;;;1.90;99.90;;;;;;4935232;29;20542;-69
2022/03/02 05:11:40;;;;;;;22.92;13.50;;;2.00;99.90;;;;;;4947062;29;20304;-70
2022/03/02 05:14:07;;;;;;;23.30;13.57;;;1.90;99.90;;;;;;4920417;28;20680;-68
2022/03/02 05:16:33;;;;;;;18.60;13.55;;;1.90;99.90;;;;;;4946437;29;20205;-68
2022/03/02 05:19:01;;;;;;;18.70;13.70;;;2.00;99.90;;;;;;4937037;28;20221;-68
2022/03/02 05:21:28;;;;;;;20.67;13.23;;;2.00;99.90;;;;;;4933445;29;20296;-70
2022/03/02 05:23:55;;;;;;;18.33;13.00;;;2.00;99.90;;;;;;4933390;29;20321;-69
2022/03/02 05:26:21;;;;;;;22.10;13.40;;;2.00;99.90;;;;;;4937081;29;20209;-70
2022/03/02 05:28:48;;;;;;;31.48;13.20;;;2.00;99.90;;;;;;4946905;29;20670;-71
2022/03/02 05:31:15;;;;;;;21.25;13.57;;;2.00;99.90;;;;;;4943594;28;20237;-68
2022/03/02 05:33:43;;;;;;;18.48;13.02;;;2.00;99.90;;;;;;4934089;29;20803;-70
2022/03/02 05:36:11;;;;;;;23.83;14.82;;;2.00;99.90;;;;;;4938153;29;20256;-70
2022/03/02 05:38:38;;;;;;;19.80;13.10;;;1.90;99.90;;;;;;4944730;29;20205;-69
2022/03/02 05:41:05;;;;;;;22.70;11.10;;;1.90;99.90;;;;;;4945256;28;20241;-69
2022/03/02 05:43:31;;;;;;;20.02;13.30;;;1.90;99.90;;;;;;4946596;29;20221;-68
2022/03/02 05:45:58;;;;;;;17.10;13.15;;;1.90;99.90;;;;;;4928623;29;20211;-70
2022/03/02 05:48:25;;;;;;;22.83;13.50;;;1.90;99.90;;;;;;4965232;23;20288;-71
2022/03/02 05:50:51;;;;;;;21.02;14.07;;;1.90;99.90;;;;;;4921383;29;20210;-70
2022/03/02 05:53:19;;;;;;;20.17;13.13;;;1.90;99.90;;;;;;4919739;29;20281;-70
2022/03/02 05:55:46;;;;;;;18.85;13.82;;;1.90;99.90;;;;;;4928407;29;20210;-70
2022/03/02 05:58:13;;;;;;;18.75;13.45;;;1.90;99.90;;;;;;4932930;29;20238;-70
2022/03/02 06:00:41;;;;;;;19.77;13.00;;;1.90;99.90;;;;;;4932203;29;20210;-70
2022/03/02 06:03:08;;;;;;;18.23;11.82;;;1.90;99.90;;;;;;4934993;29;20308;-71
2022/03/02 06:05:35;;;;;;;17.33;12.63;;;1.90;99.90;;;;;;4935097;29;20294;-70
2022/03/02 06:08:02;;;;;;;29.08;14.88;;;1.90;99.90;;;;;;4935215;29;20690;-69
2022/03/02 06:10:30;;;;;;;18.38;11.98;;;1.90;99.90;;;;;;4933949;29;20373;-69
2022/03/02 06:12:58;;;;;;;21.10;13.18;;;1.90;99.90;;;;;;4930423;29;20289;-71
2022/03/02 06:15:25;;;;;;;20.55;14.07;;;1.90;99.90;;;;;;4934019;29;20221;-70
2022/03/02 06:17:52;;;;;;;17.17;12.40;;;1.90;99.90;;;;;;4931906;29;20210;-70
2022/03/02 06:20:19;;;;;;;20.58;13.05;;;1.90;99.90;;;;;;4926669;29;20289;-70
2022/03/02 06:22:47;;;;;;;18.80;12.40;;;1.90;99.90;;;;;;4932083;29;20233;-70
2022/03/02 06:25:15;;;;;;;19.85;13.65;;;1.90;99.90;;;;;;4920883;29;20206;-71
2022/03/02 06:27:43;;;;;;;20.83;13.48;;;2.00;99.90;;;;;;4927554;29;20210;-70
2022/03/02 06:30:11;;;;;;;17.98;13.55;;;2.00;99.90;;;;;;4933707;29;20313;-70
2022/03/02 06:32:38;;;;;;;19.48;13.98;;;2.00;99.90;;;;;;4925588;29;20214;-70
2022/03/02 06:35:06;;;;;;;20.65;13.75;;;2.00;99.90;;;;;;4928047;29;20225;-70
2022/03/02 06:37:33;;;;;;;20.25;14.50;;;2.00;99.90;;;;;;4931659;29;20212;-70
2022/03/02 06:40:01;;;;;;;15.85;11.65;;;2.00;99.90;;;;;;4933987;29;20300;-71
2022/03/02 06:42:39;;;;;;;23.25;14.18;;;2.00;99.90;;;;;;4931871;29;20322;-70
2022/03/02 06:45:12;;;;;;;17.73;15.13;;;2.00;99.90;;;;;;4918517;29;20218;-70
2022/03/02 06:47:46;;;;;;;20.15;13.90;;;2.10;99.90;;;;;;4933073;29;20229;-70
2022/03/02 06:50:16;;;;;;;25.58;14.18;;;2.10;99.90;;;;;;4933391;29;20340;-70
2022/03/02 06:52:45;;;;;;;21.23;13.48;;;2.10;99.90;;;;;;4930342;29;20225;-71
2022/03/02 06:55:14;;;;;;;16.38;12.82;;;2.10;99.90;;;;;;4934697;29;20250;-70
2022/03/02 06:57:41;;;;;;;16.67;12.57;;;2.10;99.90;;;;;;4932544;29;20234;-71
2022/03/02 07:00:16;;;;;;;19.92;12.65;;;2.20;99.90;;;;;;4931324;29;20245;-70
2022/03/02 07:02:48;;;;;;;26.65;19.05;;;2.30;99.90;;;;;;4930793;29;20493;-71
2022/03/02 07:05:15;;;;;;;23.05;15.63;;;2.40;99.90;;;;;;4925197;29;20207;-70
2022/03/02 07:07:42;;;;;;;19.02;14.43;;;2.40;99.90;;;;;;4915646;29;20262;-70
2022/03/02 07:10:10;;;;;;;18.75;14.52;;;2.40;99.90;;;;;;4915347;29;20261;-71
2022/03/02 07:12:38;;;;;;;17.40;13.70;;;2.50;99.90;;;;;;4919683;29;20213;-69
2022/03/02 07:15:07;;;;;;;19.27;13.13;;;2.50;99.90;;;;;;4932037;29;20289;-70
2022/03/02 07:17:35;;;;;;;20.50;12.98;;;2.60;99.90;;;;;;4932279;29;20202;-71
2022/03/02 07:20:03;;;;;;;21.38;13.75;;;2.60;99.90;;;;;;4925924;29;20705;-70
2022/03/02 07:22:33;;;;;;;20.05;14.50;;;2.60;99.90;;;;;;4932221;29;20210;-71
2022/03/02 07:25:05;;;;;;;19.33;14.60;;;2.70;99.90;;;;;;4925878;29;20509;-70
2022/03/02 07:27:32;;;;;;;22.45;13.77;;;2.70;99.90;;;;;;4923799;29;20210;-71
2022/03/02 07:30:00;;;;;;;21.40;14.32;;;2.70;99.90;;;;;;4934657;29;20230;-70
2022/03/02 07:32:32;;;;;;;19.65;13.98;;;2.70;99.90;;;;;;4926797;29;20226;-70
2022/03/02 07:35:03;;;;;;;18.83;14.20;;;2.70;99.90;;;;;;4921937;29;20214;-70
2022/03/02 07:37:30;;;;;;;20.13;15.05;;;2.60;99.90;;;;;;4932126;29;20200;-70
2022/03/02 07:39:57;;;;;;;20.08;14.85;;;2.60;99.90;;;;;;4925363;29;20252;-70
2022/03/02 07:42:25;;;;;;;32.90;19.05;;;2.60;99.90;;;;;;4928850;29;20206;-70
2022/03/02 07:44:53;;;;;;;25.88;17.38;;;2.60;99.90;;;;;;4931678;29;20292;-70
2022/03/02 07:47:20;;;;;;;26.73;19.15;;;2.60;99.90;;;;;;4931938;29;20210;-70
2022/03/02 07:49:47;;;;;;;37.75;22.95;;;2.60;99.90;;;;;;4932213;29;20293;-70
2022/03/02 07:52:16;;;;;;;24.67;17.52;;;2.50;99.90;;;;;;4918604;29;20207;-70
2022/03/02 07:54:44;;;;;;;26.83;17.65;;;2.60;99.90;;;;;;4930981;29;20657;-69
2022/03/02 07:57:15;;;;;;;25.25;16.30;;;2.60;99.90;;;;;;4930022;29;20229;-69
2022/03/02 07:59:44;;;;;;;24.73;14.02;;;2.70;99.90;;;;;;4930519;29;20237;-69
2022/03/02 08:02:12;;;;;;;22.63;14.20;;;2.70;99.90;;;;;;4931124;29;20218;-68
2022/03/02 08:04:41;;;;;;;21.80;14.05;;;2.70;99.90;;;;;;4929625;29;20229;-69
2022/03/02 08:07:10;;;;;;;20.38;14.95;;;2.80;99.90;;;;;;4932061;29;20206;-68
2022/03/02 08:09:38;;;;;;;18.33;13.63;;;2.90;99.90;;;;;;4930762;29;20686;-68
2022/03/02 08:12:07;;;;;;;22.50;13.98;;;2.90;99.90;;;;;;4914012;29;20239;-68
2022/03/02 08:14:34;;;;;;;20.23;13.40;;;2.90;99.90;;;;;;4920060;29;20241;-70
2022/03/02 08:17:02;;;;;;;27.15;14.07;;;3.00;99.90;;;;;;4929065;29;20213;-69
2022/03/02 08:19:30;;;;;;;21.50;14.02;;;3.10;99.90;;;;;;4931584;29;20369;-69
2022/03/02 08:22:02;;;;;;;18.85;14.13;;;3.60;99.90;;;;;;4927001;29;20215;-69
2022/03/02 08:24:31;;;;;;;19.40;14.40;;;4.00;99.90;;;;;;4925191;29;20248;-70
2022/03/02 08:27:01;;;;;;;16.42;13.15;;;4.10;99.90;;;;;;4927821;29;20891;-70
2022/03/02 08:29:30;;;;;;;17.80;14.80;;;4.10;99.90;;;;;;4923760;29;20289;-69
2022/03/02 08:32:01;;;;;;;14.50;11.80;;;3.90;99.90;;;;;;4929601;29;20206;-70
2022/03/02 08:34:29;;;;;;;21.27;14.52;;;3.80;99.90;;;;;;4933916;29;20280;-69
2022/03/02 08:36:57;;;;;;;18.20;13.52;;;3.80;99.90;;;;;;4923263;29;20218;-69
2022/03/02 08:39:24;;;;;;;20.33;12.13;;;3.80;99.90;;;;;;4920434;29;20240;-70
2022/03/02 08:41:51;;;;;;;17.83;12.18;;;3.80;99.90;;;;;;4925977;29;20242;-69
2022/03/02 08:44:20;;;;;;;16.00;12.20;;;3.80;99.90;;;;;;4922880;29;20281;-69
2022/03/02 08:46:47;;;;;;;16.48;12.88;;;3.90;99.90;;;;;;4934761;29;20213;-71
2022/03/02 08:49:15;;;;;;;17.38;12.77;;;3.90;99.90;;;;;;4935362;29;20777;-68
2022/03/02 08:51:42;;;;;;;17.20;12.15;;;4.00;99.90;;;;;;4934965;29;20268;-69
2022/03/02 08:54:13;;;;;;;18.33;11.30;;;4.10;99.90;;;;;;4935226;29;20268;-69
2022/03/02 08:56:40;;;;;;;15.57;12.25;;;4.10;99.90;;;;;;4916056;29;20573;-67
2022/03/02 08:59:08;;;;;;;18.65;11.65;;;4.20;99.90;;;;;;4933562;29;20225;-68
2022/03/02 09:01:40;;;;;;;16.67;13.18;;;4.30;99.90;;;;;;4935293;29;20216;-69
2022/03/02 09:04:08;;;;;;;16.20;14.15;;;4.30;99.90;;;;;;4935649;29;20312;-68
2022/03/02 09:06:36;;;;;;;14.40;11.32;;;4.30;99.90;;;;;;4935547;29;20261;-69
2022/03/02 09:09:03;;;;;;;15.75;12.70;;;4.40;99.90;;;;;;4935256;29;20316;-70
2022/03/02 09:11:30;;;;;;;18.05;12.90;;;4.50;99.90;;;;;;4926953;29;20214;-68
2022/03/02 09:13:57;;;;;;;16.00;11.65;;;4.50;99.90;;;;;;4920956;29;20213;-68
2022/03/02 09:16:24;;;;;;;16.17;11.88;;;4.60;99.90;;;;;;4935083;29;20643;-68
2022/03/02 09:18:52;;;;;;;17.40;12.98;;;4.70;99.90;;;;;;4934947;29;20265;-68
2022/03/02 09:21:21;;;;;;;13.32;11.60;;;4.80;99.90;;;;;;4935130;29;20276;-68
2022/03/02 09:23:49;;;;;;;20.17;13.00;;;4.80;99.90;;;;;;4934897;29;20228;-68
2022/03/02 09:26:19;;;;;;;12.73;10.95;;;4.90;99.90;;;;;;4935095;29;20222;-67
2022/03/02 09:28:48;;;;;;;13.57;10.85;;;5.00;99.90;;;;;;4934457;29;20300;-69
2022/03/02 09:31:17;;;;;;;15.68;11.20;;;5.10;99.90;;;;;;4933145;29;20210;-68
2022/03/02 09:33:48;;;;;;;15.23;12.63;;;5.10;99.90;;;;;;4923736;29;20282;-69
2022/03/02 09:36:21;;;;;;;15.70;12.80;;;5.20;99.90;;;;;;4915797;29;20237;-69
2022/03/02 09:38:51;;;;;;;19.02;12.10;;;5.20;99.90;;;;;;4915820;29;20730;-67
2022/03/02 09:41:29;;;;;;;18.63;11.35;;;5.30;99.90;;;;;;4915044;29;20213;-68
2022/03/02 09:43:58;;;;;;;13.85;11.10;;;5.40;99.90;;;;;;4915484;29;20240;-69
2022/03/02 09:46:33;;;;;;;13.70;12.30;;;5.50;99.90;;;;;;4914677;29;20206;-69
2022/03/02 09:49:06;;;;;;;14.25;11.57;;;5.60;99.90;;;;;;4939780;29;20252;-69
2022/03/02 09:51:35;;;;;;;12.80;9.95;;;5.60;99.90;;;;;;4935207;29;20305;-68
2022/03/02 09:54:03;;;;;;;18.73;12.13;;;5.70;99.90;;;;;;4934595;29;20206;-69
2022/03/02 09:56:31;;;;;;;13.68;10.85;;;5.80;99.90;;;;;;4934280;29;20296;-68
2022/03/02 09:59:00;;;;;;;17.90;11.70;;;5.80;99.90;;;;;;4934192;29;20313;-68
2022/03/02 10:01:29;;;;;;;12.18;10.82;;;5.90;99.90;;;;;;4928751;29;20265;-68
2022/03/02 10:03:56;;;;;;;15.43;11.82;;;5.90;99.90;;;;;;4915156;29;20218;-69
2022/03/02 10:06:23;;;;;;;12.77;10.52;;;6.00;99.90;;;;;;4915232;29;20202;-69
2022/03/02 10:08:53;;;;;;;15.30;10.75;;;6.20;99.90;;;;;;4915114;29;20222;-69
2022/03/02 10:11:23;;;;;;;14.63;10.75;;;6.30;99.90;;;;;;4914839;29;20220;-69
2022/03/02 10:13:51;;;;;;;31.60;18.30;;;6.40;99.90;;;;;;4914793;29;20266;-69
2022/03/02 10:16:22;;;;;;;18.27;12.88;;;6.40;99.90;;;;;;4927744;29;20210;-69
2022/03/02 10:18:55;;;;;;;11.60;10.23;;;6.40;99.90;;;;;;4933950;29;20277;-68
2022/03/02 10:21:28;;;;;;;12.70;10.02;;;6.40;99.90;;;;;;4934149;29;20226;-69
2022/03/02 10:23:59;;;;;;;12.38;11.15;;;6.50;99.90;;;;;;4934179;29;20580;-68
2022/03/02 10:26:27;;;;;;;11.38;10.20;;;6.60;99.90;;;;;;4933854;29;20209;-68
2022/03/02 10:29:00;;;;;;;12.93;10.27;;;6.60;99.90;;;;;;4933707;29;20659;-68
2022/03/02 10:31:48;;;;;;;11.70;9.93;;;6.70;99.90;;;;;;4933726;29;20268;-68
2022/03/02 10:34:36;;;;;;;12.07;10.30;;;6.90;99.90;;;;;;4930448;29;20205;-69
2022/03/02 10:37:24;;;;;;;13.30;10.57;;;7.00;99.90;;;;;;4926377;29;20276;-68
2022/03/02 10:39:58;;;;;;;10.50;9.25;;;7.00;99.90;;;;;;4934577;29;20233;-70
2022/03/02 10:42:29;;;;;;;13.52;12.15;;;7.10;99.90;;;;;;4933737;29;20240;-70
2022/03/02 10:45:12;;;;;;;12.93;10.65;;;7.20;99.90;;;;;;4934582;29;20273;-69
2022/03/02 10:47:58;;;;;;;11.02;9.85;;;7.20;99.90;;;;;;4932481;29;20273;-70
2022/03/02 10:50:27;;;;;;;12.13;9.95;;;7.30;99.90;;;;;;4931606;29;20706;-69
2022/03/02 10:52:56;;;;;;;12.30;10.82;;;7.30;99.90;;;;;;4933693;29;20559;-69
2022/03/02 10:55:25;;;;;;;13.77;10.60;;;7.30;99.90;;;;;;4933762;29;20269;-70
2022/03/02 10:57:54;;;;;;;10.48;9.38;;;7.40;99.90;;;;;;4932486;29;20304;-70
2022/03/02 11:00:23;;;;;;;10.65;9.57;;;7.40;99.90;;;;;;4933864;29;20324;-69
2022/03/02 11:02:54;;;;;;;10.75;9.20;;;7.50;99.90;;;;;;4931954;29;20985;-70
2022/03/02 11:05:22;;;;;;;12.50;9.88;;;7.50;99.90;;;;;;4930640;29;20218;-68
2022/03/02 11:07:49;;;;;;;11.48;9.55;;;7.60;99.90;;;;;;4931702;29;20209;-69
2022/03/02 11:10:18;;;;;;;10.48;8.60;;;7.70;99.90;;;;;;4933218;29;20748;-68
2022/03/02 11:12:48;;;;;;;11.30;10.30;;;7.70;99.50;;;;;;4932271;29;20206;-68
2022/03/02 11:15:16;;;;;;;11.65;9.77;;;7.80;99.80;;;;;;4932987;29;20670;-69
2022/03/02 11:17:58;;;;;;;12.63;10.40;;;7.80;99.90;;;;;;4932749;29;20280;-69
2022/03/02 11:20:26;;;;;;;10.65;8.98;;;7.80;99.90;;;;;;4932353;29;20229;-68
2022/03/02 11:22:55;;;;;;;12.35;9.43;;;7.80;98.70;;;;;;4928795;29;20213;-68
2022/03/02 11:25:44;;;;;;;12.50;10.20;;;7.90;98.80;;;;;;4932836;29;20337;-68
2022/03/02 11:28:17;;;;;;;10.02;8.70;;;8.00;99.60;;;;;;4931875;29;20233;-69
2022/03/02 11:30:53;;;;;;;12.18;7.93;;;8.00;99.30;;;;;;4929741;29;20341;-69
2022/03/02 11:33:25;;;;;;;8.80;6.35;;;8.10;95.80;;;;;;4933564;29;20241;-69
2022/03/02 11:35:54;;;;;;;9.88;8.95;;;8.10;95.40;;;;;;4933475;29;20217;-68
2022/03/02 11:38:23;;;;;;;9.05;7.95;;;8.10;95.10;;;;;;4936616;29;20594;-68
2022/03/02 11:40:51;;;;;;;11.00;8.48;;;8.10;94.80;;;;;;4936240;29;20237;-68
2022/03/02 11:43:22;;;;;;;10.73;8.98;;;8.20;95.40;;;;;;4934376;29;20209;-67
2022/03/02 11:45:56;;;;;;;11.75;8.95;;;8.10;95.60;;;;;;4920423;29;20691;-68
2022/03/02 11:48:24;;;;;;;9.95;8.95;;;8.10;95.80;;;;;;4928715;29;20218;-69
2022/03/02 11:51:13;;;;;;;10.77;9.35;;;8.20;95.60;;;;;;4931295;29;20753;-68
2022/03/02 11:53:43;;;;;;;10.52;9.32;;;8.30;94.60;;;;;;4913771;29;20226;-69
2022/03/02 11:56:12;;;;;;;9.50;8.55;;;8.40;94.50;;;;;;4914186;29;20331;-69
2022/03/02 11:59:05;;;;;;;9.93;8.93;;;8.40;94.50;;;;;;4932223;29;20233;-69
2022/03/02 12:01:47;;;;;;;10.27;9.05;;;8.50;95.10;;;;;;4919358;29;20217;-69
2022/03/02 12:04:16;;;;;;;13.30;10.20;;;8.50;95.30;;;;;;4914283;29;20229;-69
2022/03/02 12:06:45;;;;;;;11.68;9.55;;;8.60;95.40;;;;;;4930978;29;20214;-69
2022/03/02 12:09:24;;;;;;;11.93;8.90;;;8.50;95.90;;;;;;4931035;29;20325;-70
2022/03/02 12:11:51;;;;;;;15.48;9.65;;;8.50;96.00;;;;;;4930648;29;20205;-70
2022/03/02 12:14:20;;;;;;;13.95;10.63;;;8.60;96.20;;;;;;4930431;29;20202;-69
2022/03/02 12:16:50;;;;;;;12.38;10.45;;;8.60;95.80;;;;;;4920111;29;20210;-69
2022/03/02 12:19:23;;;;;;;11.68;9.68;;;8.50;95.60;;;;;;4924502;29;20234;-69
2022/03/02 12:21:53;;;;;;;11.00;9.90;;;8.50;96.20;;;;;;4912678;29;20269;-69
2022/03/02 12:24:27;;;;;;;11.68;10.45;;;8.60;95.90;;;;;;4927294;29;20222;-69
2022/03/02 12:27:00;;;;;;;10.77;9.77;;;8.60;95.60;;;;;;4930327;29;20225;-71
2022/03/02 12:29:30;;;;;;;10.77;9.77;;;8.70;95.20;;;;;;4929817;29;20241;-70
2022/03/02 12:32:11;;;;;;;11.23;9.93;;;8.70;96.30;;;;;;4930685;29;20205;-69
2022/03/02 12:34:41;;;;;;;9.55;8.57;;;8.70;95.80;;;;;;4922947;29;20203;-72
2022/03/02 12:37:09;;;;;;;12.75;10.68;;;8.70;96.50;;;;;;4931928;29;20209;-69
2022/03/02 12:39:36;;;;;;;15.73;11.13;;;8.80;98.10;;;;;;4931600;29;20234;-69
2022/03/02 12:42:07;;;;;;;16.45;11.60;;;8.90;99.20;;;;;;4928270;29;20210;-69
2022/03/02 12:44:37;;;;;;;11.70;10.35;;;8.90;99.20;;;;;;4922639;29;20398;-68
2022/03/02 12:47:07;;;;;;;12.65;10.30;;;8.90;99.80;;;;;;4912917;29;20213;-68
2022/03/02 12:49:37;;;;;;;11.45;10.07;;;8.90;99.60;;;;;;4915338;29;20242;-69
2022/03/02 12:52:05;;;;;;;12.05;10.80;;;8.90;99.90;;;;;;4915072;29;20305;-69
2022/03/02 12:54:34;;;;;;;12.60;11.30;;;8.90;99.90;;;;;;4926704;29;20214;-69
2022/03/02 12:57:02;;;;;;;12.98;11.00;;;9.00;99.90;;;;;;4931353;29;20221;-69
2022/03/02 12:59:29;;;;;;;13.02;11.75;;;9.00;99.90;;;;;;4930835;29;20222;-69
2022/03/02 13:01:58;;;;;;;10.63;9.45;;;9.10;99.90;;;;;;4923604;29;20214;-69
2022/03/02 13:04:31;;;;;;;13.63;10.75;;;9.00;99.90;;;;;;4918409;29;20203;-67
2022/03/02 13:07:05;;;;;;;13.00;11.57;;;9.00;99.60;;;;;;4914614;29;20214;-68
2022/03/02 13:09:38;;;;;;;20.52;11.32;;;9.00;99.50;;;;;;4923507;29;20327;-68
2022/03/02 13:12:26;;;;;;;13.75;11.10;;;8.90;99.30;;;;;;4913392;29;20199;-68
2022/03/02 13:14:53;;;;;;;14.32;9.50;;;9.00;99.70;;;;;;4916741;29;20218;-69
2022/03/02 13:17:22;;;;;;;14.05;11.15;;;9.00;99.70;;;;;;4930856;29;20210;-69
2022/03/02 13:19:51;;;;;;;12.30;9.85;;;8.90;99.50;;;;;;4925982;29;20309;-68
2022/03/02 13:22:26;;;;;;;16.08;10.75;;;8.90;99.40;;;;;;4916043;29;20553;-68
2022/03/02 13:24:54;;;;;;;11.65;10.45;;;9.00;99.40;;;;;;4930488;29;20228;-68
2022/03/02 13:27:21;;;;;;;12.10;11.00;;;9.00;99.30;;;;;;4933814;29;20210;-68
2022/03/02 13:29:58;;;;;;;13.20;10.13;;;9.00;98.50;;;;;;4933754;29;20245;-68
2022/03/02 13:33:06;;;;;;;11.05;9.95;;;9.00;98.70;;;;;;4935044;29;20265;-68
2022/03/02 13:35:35;;;;;;;9.40;8.55;;;9.00;98.40;;;;;;4934486;29;20206;-69
2022/03/02 13:38:05;;;;;;;11.38;10.30;;;9.00;98.00;;;;;;4932517;29;20238;-68
2022/03/02 13:40:44;;;;;;;9.15;8.05;;;9.10;98.40;;;;;;4932309;29;20226;-68
2022/03/02 13:43:42;;;;;;;11.63;10.52;;;9.00;96.80;;;;;;4915197;29;20214;-69
2022/03/02 13:46:23;;;;;;;8.38;7.43;;;9.00;96.60;;;;;;4931766;29;20255;-68
2022/03/02 13:48:56;;;;;;;11.25;9.95;;;9.00;96.40;;;;;;4933128;29;20237;-68
2022/03/02 13:51:25;;;;;;;14.68;11.25;;;9.00;96.70;;;;;;4932877;29;20220;-68
2022/03/02 13:53:59;;;;;;;10.25;9.18;;;9.00;97.10;;;;;;4922107;29;20293;-68
2022/03/02 13:56:39;;;;;;;11.50;10.32;;;8.90;96.60;;;;;;4926825;29;20281;-68
2022/03/02 13:59:19;;;;;;;9.77;8.77;;;9.00;96.40;;;;;;4917775;29;20226;-68
2022/03/02 14:01:46;;;;;;;14.40;11.55;;;9.00;95.80;;;;;;4932453;29;20468;-68
2022/03/02 14:04:18;;;;;;;11.95;10.02;;;9.00;96.40;;;;;;4922173;29;20203;-68
2022/03/02 14:06:51;;;;;;;11.70;10.52;;;9.00;95.80;;;;;;4918326;29;20664;-68
2022/03/02 14:09:17;;;;;;;12.80;10.88;;;9.00;95.90;;;;;;4935488;29;20623;-68
2022/03/02 14:11:45;;;;;;;11.55;10.02;;;8.90;95.80;;;;;;4924232;29;20222;-68
2022/03/02 14:14:16;;;;;;;11.65;10.40;;;8.90;96.00;;;;;;4915545;29;20206;-68
2022/03/02 14:16:55;;;;;;;10.82;9.43;;;8.90;95.70;;;;;;4915203;29;20211;-69
2022/03/02 14:19:24;;;;;;;10.98;9.25;;;8.90;95.60;;;;;;4915240;29;20234;-68
2022/03/02 14:21:57;;;;;;;11.68;9.48;;;8.90;94.90;;;;;;4922741;29;20217;-68
2022/03/02 14:24:25;;;;;;;10.40;9.40;;;8.90;94.30;;;;;;4934504;29;20214;-68
2022/03/02 14:27:00;;;;;;;10.07;8.50;;;8.90;93.80;;;;;;4934289;29;20233;-68
2022/03/02 14:29:28;;;;;;;15.85;9.45;;;8.90;93.70;;;;;;4936458;29;20318;-68
2022/03/02 14:31:57;;;;;;;10.10;9.10;;;8.90;93.50;;;;;;4933009;29;20245;-68
2022/03/02 14:34:43;;;;;;;9.80;8.35;;;8.90;93.10;;;;;;4934101;29;20680;-68
2022/03/02 14:37:12;;;;;;;8.88;7.50;;;8.90;92.70;;;;;;4933926;29;20213;-68
2022/03/02 14:39:54;;;;;;;10.63;9.52;;;8.90;92.40;;;;;;4933968;29;20297;-69
2022/03/02 14:42:21;;;;;;;9.80;8.65;;;8.90;92.30;;;;;;4933125;29;20206;-68
2022/03/02 14:45:06;;;;;;;9.60;8.70;;;8.90;92.00;;;;;;4933281;29;20206;-69
2022/03/02 14:47:33;;;;;;;9.63;8.63;;;8.80;92.10;;;;;;4933452;29;20301;-69
2022/03/02 14:50:01;;;;;;;9.35;8.43;;;8.90;92.20;;;;;;4932907;29;20722;-70
2022/03/02 14:52:29;;;;;;;9.98;8.85;;;8.80;92.00;;;;;;4933387;29;20206;-69
2022/03/02 14:54:56;;;;;;;11.40;8.30;;;8.80;91.60;;;;;;4933636;29;20663;-70
2022/03/02 14:57:23;;;;;;;9.52;8.35;;;8.90;91.80;;;;;;4932993;29;20221;-69
2022/03/02 14:59:50;;;;;;;9.90;8.65;;;8.90;91.90;;;;;;4927713;29;20293;-69
2022/03/02 15:02:17;;;;;;;11.68;9.48;;;8.90;91.80;;;;;;4930360;29;20218;-69
2022/03/02 15:04:55;;;;;;;11.38;8.95;;;8.80;91.10;;;;;;4933234;29;20220;-69
2022/03/02 15:07:23;;;;;;;9.75;8.10;;;8.80;91.00;;;;;;4933335;29;20218;-69
2022/03/02 15:10:04;;;;;;;11.15;9.27;;;8.80;90.80;;;;;;4932789;29;20226;-69
2022/03/02 15:12:32;;;;;;;8.48;7.70;;;8.80;90.90;;;;;;4932244;29;20296;-70
2022/03/02 15:15:11;;;;;;;10.65;9.23;;;8.80;90.90;;;;;;4933714;29;20561;-69
2022/03/02 15:17:38;;;;;;;11.18;8.65;;;8.80;91.30;;;;;;4933215;29;20689;-68
2022/03/02 15:20:07;;;;;;;9.73;8.70;;;8.70;91.70;;;;;;4932668;29;20312;-68
2022/03/02 15:22:37;;;;;;;10.57;9.48;;;8.70;91.30;;;;;;4922577;29;20305;-68
2022/03/02 15:25:06;;;;;;;9.63;8.70;;;8.70;91.60;;;;;;4914659;29;20209;-68
2022/03/02 15:27:33;;;;;;;12.13;9.23;;;8.70;91.30;;;;;;4913801;29;20207;-69
2022/03/02 15:30:12;;;;;;;12.80;10.25;;;8.60;91.40;;;;;;4913487;29;20230;-69
2022/03/02 15:32:40;;;;;;;9.73;8.82;;;8.60;92.30;;;;;;4914410;29;20215;-69
2022/03/02 15:35:08;;;;;;;10.90;9.27;;;8.60;92.00;;;;;;4932860;29;20225;-68
2022/03/02 15:37:37;;;;;;;13.07;10.27;;;8.50;92.50;;;;;;4932836;29;20205;-68
2022/03/02 15:40:09;;;;;;;11.60;10.02;;;8.60;93.40;;;;;;4932357;29;20234;-69
2022/03/02 15:42:38;;;;;;;12.68;9.43;;;8.50;93.90;;;;;;4932496;29;20243;-69
2022/03/02 15:45:09;;;;;;;11.38;9.80;;;8.50;94.20;;;;;;4940358;29;20210;-68
2022/03/02 15:47:38;;;;;;;13.48;10.20;;;8.50;94.40;;;;;;4955433;29;20240;-68
2022/03/02 15:50:09;;;;;;;11.15;9.48;;;8.50;94.30;;;;;;4953710;29;20598;-69
2022/03/02 15:52:40;;;;;;;12.15;10.70;;;8.40;94.80;;;;;;4927600;29;20308;-70
2022/03/02 15:55:08;;;;;;;11.93;10.70;;;8.40;94.80;;;;;;4930744;29;20210;-67
2022/03/02 15:57:49;;;;;;;13.02;11.02;;;8.30;94.80;;;;;;4930456;29;20675;-68
2022/03/02 16:00:18;;;;;;;15.57;11.30;;;8.30;95.20;;;;;;4920782;29;20257;-68
2022/03/02 16:02:49;;;;;;;12.02;10.80;;;8.20;95.60;;;;;;4931232;29;20317;-68
2022/03/02 16:05:16;;;;;;;12.35;10.82;;;8.20;96.00;;;;;;4934998;29;20301;-69
2022/03/02 16:07:57;;;;;;;12.13;10.68;;;8.10;96.60;;;;;;4949508;29;20213;-69
2022/03/02 16:10:24;;;;;;;13.40;10.27;;;8.10;96.90;;;;;;4922701;29;20217;-69
2022/03/02 16:12:52;;;;;;;14.02;10.30;;;8.00;97.30;;;;;;4930649;29;20202;-69
2022/03/02 16:15:21;;;;;;;16.30;11.85;;;8.00;97.60;;;;;;4916849;29;20274;-70
2022/03/02 16:17:51;;;;;;;14.85;11.27;;;7.90;97.90;;;;;;4917266;29;20723;-68
2022/03/02 16:20:21;;;;;;;12.45;11.25;;;7.80;98.10;;;;;;4930717;29;20234;-69
2022/03/02 16:22:49;;;;;;;17.08;11.75;;;7.80;98.20;;;;;;4946531;28;20280;-68
2022/03/02 16:25:24;;;;;;;14.52;11.07;;;7.80;98.40;;;;;;4919284;29;20224;-69
2022/03/02 16:28:01;;;;;;;15.18;10.98;;;7.80;98.50;;;;;;4931166;29;20301;-70
2022/03/02 16:30:29;;;;;;;15.93;10.95;;;7.70;98.60;;;;;;4912988;29;20261;-70
2022/03/02 16:32:57;;;;;;;14.57;11.93;;;7.70;98.80;;;;;;4916726;29;20202;-69
2022/03/02 16:35:24;;;;;;;12.93;10.88;;;7.70;98.90;;;;;;4929975;29;20730;-68
2022/03/02 16:37:53;;;;;;;16.85;11.32;;;7.60;98.90;;;;;;4928734;29;21838;-68
2022/03/02 16:40:21;;;;;;;20.63;12.10;;;7.60;99.30;;;;;;4927038;29;20231;-67
2022/03/02 16:42:48;;;;;;;12.85;10.60;;;7.50;99.70;;;;;;4933099;29;20248;-69
2022/03/02 16:45:16;;;;;;;20.70;13.48;;;7.40;99.90;;;;;;4932171;29;20289;-69
2022/03/02 16:47:44;;;;;;;12.95;10.57;;;7.30;99.90;;;;;;4931650;29;20238;-68
2022/03/02 16:50:12;;;;;;;18.95;11.63;;;7.30;99.90;;;;;;4923342;29;20234;-69
2022/03/02 16:52:39;;;;;;;15.73;12.73;;;7.20;99.90;;;;;;4918797;29;20254;-68
2022/03/02 16:55:09;;;;;;;15.98;12.20;;;7.20;99.90;;;;;;4939602;29;20213;-69
2022/03/02 16:57:36;;;;;;;14.68;11.45;;;7.10;99.90;;;;;;4933558;28;20652;-68
2022/03/02 17:00:04;;;;;;;12.35;10.63;;;7.10;99.90;;;;;;4928049;29;20222;-68
2022/03/02 17:02:31;;;;;;;16.60;12.25;;;7.00;99.90;;;;;;4935877;29;20269;-68
2022/03/02 17:04:58;;;;;;;14.75;11.98;;;6.90;99.90;;;;;;4929179;29;20214;-69
2022/03/02 17:07:24;;;;;;;15.00;12.00;;;6.80;99.90;;;;;;4945094;29;20897;-69
2022/03/02 17:09:51;;;;;;;16.77;12.00;;;6.70;99.90;;;;;;4928227;29;20234;-69
2022/03/02 17:12:19;;;;;;;13.93;10.63;;;6.70;99.90;;;;;;4928468;29;20578;-68
2022/03/02 17:14:46;;;;;;;14.25;11.73;;;6.60;99.90;;;;;;4935488;29;20214;-68
2022/03/02 17:17:12;;;;;;;15.23;12.18;;;6.50;99.90;;;;;;4932105;29;20200;-68
2022/03/02 17:19:39;;;;;;;14.73;12.45;;;6.40;99.90;;;;;;4934556;29;20225;-69
2022/03/02 17:22:06;;;;;;;13.27;11.88;;;6.30;99.90;;;;;;4935557;29;20201;-68
2022/03/02 17:24:34;;;;;;;15.27;11.88;;;6.20;99.90;;;;;;4930182;29;20536;-68
2022/03/02 17:27:00;;;;;;;20.65;14.82;;;6.10;99.90;;;;;;4933074;29;21072;-69
2022/03/02 17:29:28;;;;;;;17.90;14.20;;;6.10;99.90;;;;;;4934072;29;20574;-70
2022/03/02 17:31:55;;;;;;;13.75;12.35;;;6.10;99.90;;;;;;4931247;29;20214;-68
2022/03/02 17:34:22;;;;;;;19.83;13.85;;;6.10;99.90;;;;;;4935228;29;20205;-68
2022/03/02 17:36:48;;;;;;;21.60;12.55;;;6.00;99.90;;;;;;4940775;29;20578;-69
2022/03/02 17:39:15;;;;;;;19.25;13.60;;;5.90;99.90;;;;;;4946221;29;20770;-69
2022/03/02 17:41:43;;;;;;;16.73;12.80;;;5.80;99.90;;;;;;4921751;29;20285;-69
2022/03/02 17:44:10;;;;;;;14.63;12.80;;;5.70;99.90;;;;;;4934701;29;20559;-68
2022/03/02 17:46:38;;;;;;;19.90;12.80;;;5.60;99.90;;;;;;4934788;29;20235;-68
2022/03/02 17:49:05;;;;;;;20.05;13.40;;;5.50;99.90;;;;;;4934548;29;20790;-69
2022/03/02 17:51:33;;;;;;;19.88;13.40;;;5.40;99.90;;;;;;4936796;29;20213;-67
2022/03/02 17:54:00;;;;;;;19.10;14.07;;;5.30;99.90;;;;;;4934947;29;20232;-69
2022/03/02 17:56:27;;;;;;;19.00;14.73;;;5.30;99.90;;;;;;4946436;28;20198;-68